sensor_id;sensor_type;location;lat;lon;timestamp;P1;durP1;ratioP1;P2;durP2;ratioP2
24147;SDS011;12309;51.450;-2.624;2023-09-12T00:00:49;6.03;;;1.50;;
24147;SDS011;12309;51.450;-2.624;2023-09-12T00:03:18;2.85;;;1.25;;
24147;SDS011;12309;51.450;-2.624;2023-09-12T00:05:54;2.65;;;1.35;;
24147;SDS011;12309;51.450;-2.624;2023-09-12T00:08:21;6.47;;;1.70;;
24147;SDS011;12309;51.450;-2.624;2023-09-12T00:10:58;3.40;;;1.30;;
24147;SDS011;12309;51.450;-2.624;2023-09-12T00:13:24;3.30;;;1.50;;
24147;SDS011;12309;51.450;-2.624;2023-09-12T00:15:50;3.53;;;1.63;;
24147;SDS011;12309;51.450;-2.624;2023-09-12T00:18:16;3.92;;;1.58;;
24147;SDS011;12309;51.450;-2.624;2023-09-12T00:20:41;5.10;;;1.58;;
24147;SDS011;12309;51.450;-2.624;2023-09-12T00:23:07;4.22;;;1.48;;
24147;SDS011;12309;51.450;-2.624;2023-09-12T00:25:32;4.03;;;1.60;;
24147;SDS011;12309;51.450;-2.624;2023-09-12T00:27:58;6.55;;;1.80;;
24147;SDS011;12309;51.450;-2.624;2023-09-12T00:30:23;2.42;;;1.27;;
24147;SDS011;12309;51.450;-2.624;2023-09-12T00:32:49;3.45;;;1.65;;
24147;SDS011;12309;51.450;-2.624;2023-09-12T00:35:15;4.18;;;1.38;;
24147;SDS011;12309;51.450;-2.624;2023-09-12T00:37:40;3.47;;;1.67;;
24147;SDS011;12309;51.450;-2.624;2023-09-12T00:40:06;4.25;;;1.77;;
24147;SDS011;12309;51.450;-2.624;2023-09-12T00:42:32;1.90;;;1.27;;
24147;SDS011;12309;51.450;-2.624;2023-09-12T00:44:58;4.15;;;1.20;;
24147;SDS011;12309;51.450;-2.624;2023-09-12T00:47:23;3.42;;;1.30;;
24147;SDS011;12309;51.450;-2.624;2023-09-12T00:49:50;4.80;;;1.50;;
24147;SDS011;12309;51.450;-2.624;2023-09-12T00:52:17;3.03;;;1.30;;
24147;SDS011;12309;51.450;-2.624;2023-09-12T00:54:45;3.92;;;1.73;;
24147;SDS011;12309;51.450;-2.624;2023-09-12T00:57:11;4.07;;;1.45;;
24147;SDS011;12309;51.450;-2.624;2023-09-12T00:59:37;7.50;;;1.65;;
24147;SDS011;12309;51.450;-2.624;2023-09-12T01:02:02;1.58;;;1.30;;
24147;SDS011;12309;51.450;-2.624;2023-09-12T01:04:28;3.85;;;1.40;;
24147;SDS011;12309;51.450;-2.624;2023-09-12T01:06:54;3.47;;;1.60;;
24147;SDS011;12309;51.450;-2.624;2023-09-12T01:09:20;3.13;;;1.60;;
24147;SDS011;12309;51.450;-2.624;2023-09-12T01:11:46;4.50;;;1.63;;
24147;SDS011;12309;51.450;-2.624;2023-09-12T01:14:12;3.58;;;1.63;;
24147;SDS011;12309;51.450;-2.624;2023-09-12T01:16:37;3.60;;;1.42;;
24147;SDS011;12309;51.450;-2.624;2023-09-12T01:19:03;3.67;;;1.60;;
24147;SDS011;12309;51.450;-2.624;2023-09-12T01:21:41;2.55;;;1.38;;
24147;SDS011;12309;51.450;-2.624;2023-09-12T01:29:16;4.78;;;1.45;;
24147;SDS011;12309;51.450;-2.624;2023-09-12T01:31:45;3.72;;;1.25;;
24147;SDS011;12309;51.450;-2.624;2023-09-12T01:34:12;2.95;;;1.58;;
24147;SDS011;12309;51.450;-2.624;2023-09-12T01:36:39;4.15;;;1.52;;
24147;SDS011;12309;51.450;-2.624;2023-09-12T01:39:04;4.13;;;1.50;;
24147;SDS011;12309;51.450;-2.624;2023-09-12T01:41:31;3.10;;;1.45;;
24147;SDS011;12309;51.450;-2.624;2023-09-12T01:43:59;4.53;;;1.73;;
24147;SDS011;12309;51.450;-2.624;2023-09-12T01:46:26;4.40;;;1.98;;
24147;SDS011;12309;51.450;-2.624;2023-09-12T01:48:53;2.35;;;1.63;;
24147;SDS011;12309;51.450;-2.624;2023-09-12T01:51:21;5.38;;;1.70;;
24147;SDS011;12309;51.450;-2.624;2023-09-12T01:53:49;3.88;;;1.50;;
24147;SDS011;12309;51.450;-2.624;2023-09-12T01:56:15;8.90;;;1.35;;
24147;SDS011;12309;51.450;-2.624;2023-09-12T01:58:42;2.25;;;1.40;;
24147;SDS011;12309;51.450;-2.624;2023-09-12T02:01:08;4.20;;;1.23;;
24147;SDS011;12309;51.450;-2.624;2023-09-12T02:03:34;3.85;;;1.10;;
24147;SDS011;12309;51.450;-2.624;2023-09-12T02:06:00;2.17;;;1.10;;
24147;SDS011;12309;51.450;-2.624;2023-09-12T02:08:25;4.05;;;1.60;;
24147;SDS011;12309;51.450;-2.624;2023-09-12T02:10:51;6.25;;;1.70;;
24147;SDS011;12309;51.450;-2.624;2023-09-12T02:13:16;3.58;;;1.60;;
24147;SDS011;12309;51.450;-2.624;2023-09-12T02:15:42;4.15;;;1.48;;
24147;SDS011;12309;51.450;-2.624;2023-09-12T02:18:07;2.35;;;1.60;;
24147;SDS011;12309;51.450;-2.624;2023-09-12T02:20:37;5.00;;;1.48;;
24147;SDS011;12309;51.450;-2.624;2023-09-12T02:23:03;6.68;;;1.60;;
24147;SDS011;12309;51.450;-2.624;2023-09-12T02:25:29;2.75;;;1.48;;
24147;SDS011;12309;51.450;-2.624;2023-09-12T02:27:54;5.07;;;1.13;;
24147;SDS011;12309;51.450;-2.624;2023-09-12T02:30:20;4.38;;;1.45;;
24147;SDS011;12309;51.450;-2.624;2023-09-12T02:32:45;4.72;;;1.40;;
24147;SDS011;12309;51.450;-2.624;2023-09-12T02:35:11;6.57;;;1.15;;
24147;SDS011;12309;51.450;-2.624;2023-09-12T02:37:37;4.50;;;1.10;;
24147;SDS011;12309;51.450;-2.624;2023-09-12T02:40:03;2.47;;;1.08;;
24147;SDS011;12309;51.450;-2.624;2023-09-12T02:42:32;2.75;;;1.17;;
24147;SDS011;12309;51.450;-2.624;2023-09-12T02:44:58;4.18;;;1.30;;
24147;SDS011;12309;51.450;-2.624;2023-09-12T02:47:23;2.88;;;1.20;;
24147;SDS011;12309;51.450;-2.624;2023-09-12T02:49:49;1.42;;;0.90;;
24147;SDS011;12309;51.450;-2.624;2023-09-12T02:52:15;1.85;;;1.00;;
24147;SDS011;12309;51.450;-2.624;2023-09-12T02:54:40;3.90;;;1.23;;
24147;SDS011;12309;51.450;-2.624;2023-09-12T02:57:06;3.80;;;1.15;;
24147;SDS011;12309;51.450;-2.624;2023-09-12T02:59:31;2.17;;;1.27;;
24147;SDS011;12309;51.450;-2.624;2023-09-12T03:01:57;2.35;;;1.13;;
24147;SDS011;12309;51.450;-2.624;2023-09-12T03:04:25;2.35;;;1.27;;
24147;SDS011;12309;51.450;-2.624;2023-09-12T03:06:52;2.28;;;1.23;;
24147;SDS011;12309;51.450;-2.624;2023-09-12T03:09:18;2.63;;;1.30;;
24147;SDS011;12309;51.450;-2.624;2023-09-12T03:11:44;2.20;;;1.17;;
24147;SDS011;12309;51.450;-2.624;2023-09-12T03:14:10;1.63;;;1.20;;
24147;SDS011;12309;51.450;-2.624;2023-09-12T03:16:35;3.38;;;1.60;;
24147;SDS011;12309;51.450;-2.624;2023-09-12T03:19:02;5.68;;;1.55;;
24147;SDS011;12309;51.450;-2.624;2023-09-12T03:21:28;1.80;;;1.02;;
24147;SDS011;12309;51.450;-2.624;2023-09-12T03:23:54;2.63;;;1.10;;
24147;SDS011;12309;51.450;-2.624;2023-09-12T03:26:20;4.10;;;1.50;;
24147;SDS011;12309;51.450;-2.624;2023-09-12T03:28:48;5.70;;;0.88;;
24147;SDS011;12309;51.450;-2.624;2023-09-12T03:31:15;2.45;;;1.33;;
24147;SDS011;12309;51.450;-2.624;2023-09-12T03:33:41;3.25;;;1.15;;
24147;SDS011;12309;51.450;-2.624;2023-09-12T03:36:08;2.28;;;1.30;;
24147;SDS011;12309;51.450;-2.624;2023-09-12T03:38:34;4.10;;;1.58;;
24147;SDS011;12309;51.450;-2.624;2023-09-12T03:41:00;4.10;;;1.30;;
24147;SDS011;12309;51.450;-2.624;2023-09-12T03:43:26;4.60;;;1.20;;
24147;SDS011;12309;51.450;-2.624;2023-09-12T03:45:53;3.15;;;1.25;;
24147;SDS011;12309;51.450;-2.624;2023-09-12T03:48:18;3.22;;;1.60;;
24147;SDS011;12309;51.450;-2.624;2023-09-12T03:50:44;3.13;;;1.38;;
24147;SDS011;12309;51.450;-2.624;2023-09-12T03:53:13;2.47;;;1.30;;
24147;SDS011;12309;51.450;-2.624;2023-09-12T03:55:39;3.30;;;1.38;;
24147;SDS011;12309;51.450;-2.624;2023-09-12T03:58:05;2.33;;;1.20;;
24147;SDS011;12309;51.450;-2.624;2023-09-12T04:00:30;3.83;;;1.45;;
24147;SDS011;12309;51.450;-2.624;2023-09-12T04:02:56;5.75;;;1.45;;
24147;SDS011;12309;51.450;-2.624;2023-09-12T04:05:21;2.30;;;1.13;;
24147;SDS011;12309;51.450;-2.624;2023-09-12T04:07:47;3.08;;;1.33;;
24147;SDS011;12309;51.450;-2.624;2023-09-12T04:10:13;3.83;;;1.50;;
24147;SDS011;12309;51.450;-2.624;2023-09-12T04:12:38;3.45;;;1.83;;
24147;SDS011;12309;51.450;-2.624;2023-09-12T04:15:05;3.03;;;1.58;;
24147;SDS011;12309;51.450;-2.624;2023-09-12T04:17:31;4.03;;;1.60;;
24147;SDS011;12309;51.450;-2.624;2023-09-12T04:19:56;4.07;;;1.30;;
24147;SDS011;12309;51.450;-2.624;2023-09-12T04:22:22;2.58;;;1.52;;
24147;SDS011;12309;51.450;-2.624;2023-09-12T04:24:47;3.55;;;1.50;;
24147;SDS011;12309;51.450;-2.624;2023-09-12T04:27:13;2.65;;;1.42;;
24147;SDS011;12309;51.450;-2.624;2023-09-12T04:29:39;2.40;;;1.33;;
24147;SDS011;12309;51.450;-2.624;2023-09-12T04:32:05;3.90;;;1.48;;
24147;SDS011;12309;51.450;-2.624;2023-09-12T04:34:31;3.05;;;1.42;;
24147;SDS011;12309;51.450;-2.624;2023-09-12T04:36:56;2.85;;;1.40;;
24147;SDS011;12309;51.450;-2.624;2023-09-12T04:39:22;2.38;;;1.30;;
24147;SDS011;12309;51.450;-2.624;2023-09-12T04:41:48;7.00;;;1.48;;
24147;SDS011;12309;51.450;-2.624;2023-09-12T04:44:14;2.75;;;1.35;;
24147;SDS011;12309;51.450;-2.624;2023-09-12T04:46:39;5.50;;;1.60;;
24147;SDS011;12309;51.450;-2.624;2023-09-12T04:49:05;2.97;;;1.20;;
24147;SDS011;12309;51.450;-2.624;2023-09-12T04:51:31;4.30;;;1.50;;
24147;SDS011;12309;51.450;-2.624;2023-09-12T04:53:56;4.22;;;1.83;;
24147;SDS011;12309;51.450;-2.624;2023-09-12T04:56:22;4.28;;;1.17;;
24147;SDS011;12309;51.450;-2.624;2023-09-12T04:58:50;3.13;;;1.48;;
24147;SDS011;12309;51.450;-2.624;2023-09-12T05:01:16;4.57;;;1.60;;
24147;SDS011;12309;51.450;-2.624;2023-09-12T05:03:42;3.65;;;1.17;;
24147;SDS011;12309;51.450;-2.624;2023-09-12T05:06:09;3.58;;;1.40;;
24147;SDS011;12309;51.450;-2.624;2023-09-12T05:08:35;5.30;;;1.50;;
24147;SDS011;12309;51.450;-2.624;2023-09-12T05:11:01;2.25;;;1.35;;
24147;SDS011;12309;51.450;-2.624;2023-09-12T05:13:28;5.78;;;1.45;;
24147;SDS011;12309;51.450;-2.624;2023-09-12T05:15:54;4.80;;;1.80;;
24147;SDS011;12309;51.450;-2.624;2023-09-12T05:18:20;3.35;;;1.20;;
24147;SDS011;12309;51.450;-2.624;2023-09-12T05:20:46;7.65;;;1.70;;
24147;SDS011;12309;51.450;-2.624;2023-09-12T05:23:11;2.97;;;1.30;;
24147;SDS011;12309;51.450;-2.624;2023-09-12T05:25:37;6.68;;;1.75;;
24147;SDS011;12309;51.450;-2.624;2023-09-12T05:28:03;2.90;;;1.55;;
24147;SDS011;12309;51.450;-2.624;2023-09-12T05:30:29;2.33;;;1.40;;
24147;SDS011;12309;51.450;-2.624;2023-09-12T05:32:55;4.22;;;1.45;;
24147;SDS011;12309;51.450;-2.624;2023-09-12T05:35:20;4.15;;;1.90;;
24147;SDS011;12309;51.450;-2.624;2023-09-12T05:37:46;3.53;;;1.80;;
24147;SDS011;12309;51.450;-2.624;2023-09-12T05:40:12;5.43;;;2.05;;
24147;SDS011;12309;51.450;-2.624;2023-09-12T05:42:38;4.20;;;1.70;;
24147;SDS011;12309;51.450;-2.624;2023-09-12T05:45:04;4.40;;;1.75;;
24147;SDS011;12309;51.450;-2.624;2023-09-12T05:47:31;4.65;;;1.60;;
24147;SDS011;12309;51.450;-2.624;2023-09-12T05:49:56;5.13;;;1.80;;
24147;SDS011;12309;51.450;-2.624;2023-09-12T05:52:24;5.35;;;1.75;;
24147;SDS011;12309;51.450;-2.624;2023-09-12T05:54:49;3.67;;;1.80;;
24147;SDS011;12309;51.450;-2.624;2023-09-12T05:57:15;3.80;;;1.63;;
24147;SDS011;12309;51.450;-2.624;2023-09-12T05:59:41;4.45;;;1.75;;
24147;SDS011;12309;51.450;-2.624;2023-09-12T06:02:07;6.65;;;1.83;;
24147;SDS011;12309;51.450;-2.624;2023-09-12T06:04:34;3.90;;;1.65;;
24147;SDS011;12309;51.450;-2.624;2023-09-12T06:07:03;11.40;;;2.05;;
24147;SDS011;12309;51.450;-2.624;2023-09-12T06:09:29;3.45;;;1.95;;
24147;SDS011;12309;51.450;-2.624;2023-09-12T06:11:55;4.53;;;1.60;;
24147;SDS011;12309;51.450;-2.624;2023-09-12T06:14:20;2.35;;;1.80;;
24147;SDS011;12309;51.450;-2.624;2023-09-12T06:16:46;4.47;;;1.98;;
24147;SDS011;12309;51.450;-2.624;2023-09-12T06:19:12;3.38;;;1.80;;
24147;SDS011;12309;51.450;-2.624;2023-09-12T06:21:39;6.70;;;2.00;;
24147;SDS011;12309;51.450;-2.624;2023-09-12T06:24:38;10.45;;;2.22;;
24147;SDS011;12309;51.450;-2.624;2023-09-12T06:26:57;3.92;;;1.90;;
24147;SDS011;12309;51.450;-2.624;2023-09-12T06:29:23;6.00;;;2.00;;
24147;SDS011;12309;51.450;-2.624;2023-09-12T06:31:48;6.53;;;1.92;;
24147;SDS011;12309;51.450;-2.624;2023-09-12T06:34:14;5.72;;;2.25;;
24147;SDS011;12309;51.450;-2.624;2023-09-12T06:36:40;7.50;;;2.50;;
24147;SDS011;12309;51.450;-2.624;2023-09-12T06:39:09;3.75;;;2.33;;
24147;SDS011;12309;51.450;-2.624;2023-09-12T06:41:35;5.38;;;2.20;;
24147;SDS011;12309;51.450;-2.624;2023-09-12T06:44:01;5.15;;;2.13;;
24147;SDS011;12309;51.450;-2.624;2023-09-12T06:46:28;5.95;;;2.10;;
24147;SDS011;12309;51.450;-2.624;2023-09-12T06:48:53;4.78;;;2.35;;
24147;SDS011;12309;51.450;-2.624;2023-09-12T06:51:22;5.55;;;2.17;;
24147;SDS011;12309;51.450;-2.624;2023-09-12T06:53:50;6.25;;;1.85;;
24147;SDS011;12309;51.450;-2.624;2023-09-12T06:56:16;5.47;;;2.28;;
24147;SDS011;12309;51.450;-2.624;2023-09-12T06:58:41;3.20;;;1.90;;
24147;SDS011;12309;51.450;-2.624;2023-09-12T07:01:07;6.15;;;2.20;;
24147;SDS011;12309;51.450;-2.624;2023-09-12T07:03:33;5.45;;;2.05;;
24147;SDS011;12309;51.450;-2.624;2023-09-12T07:06:00;4.57;;;2.15;;
24147;SDS011;12309;51.450;-2.624;2023-09-12T07:08:26;6.70;;;2.22;;
24147;SDS011;12309;51.450;-2.624;2023-09-12T07:10:54;4.88;;;2.58;;
24147;SDS011;12309;51.450;-2.624;2023-09-12T07:13:20;6.97;;;2.40;;
24147;SDS011;12309;51.450;-2.624;2023-09-12T07:15:46;7.50;;;2.47;;
24147;SDS011;12309;51.450;-2.624;2023-09-12T07:18:12;7.30;;;2.60;;
24147;SDS011;12309;51.450;-2.624;2023-09-12T07:20:40;5.80;;;2.40;;
24147;SDS011;12309;51.450;-2.624;2023-09-12T07:23:05;6.20;;;2.70;;
24147;SDS011;12309;51.450;-2.624;2023-09-12T07:25:35;5.95;;;2.53;;
24147;SDS011;12309;51.450;-2.624;2023-09-12T07:28:03;7.20;;;2.67;;
24147;SDS011;12309;51.450;-2.624;2023-09-12T07:30:29;9.38;;;3.08;;
24147;SDS011;12309;51.450;-2.624;2023-09-12T07:32:55;6.43;;;2.83;;
24147;SDS011;12309;51.450;-2.624;2023-09-12T07:35:21;7.90;;;3.03;;
24147;SDS011;12309;51.450;-2.624;2023-09-12T07:37:48;6.80;;;2.72;;
24147;SDS011;12309;51.450;-2.624;2023-09-12T07:40:14;6.07;;;2.83;;
24147;SDS011;12309;51.450;-2.624;2023-09-12T07:42:40;7.82;;;2.90;;
24147;SDS011;12309;51.450;-2.624;2023-09-12T07:45:06;6.22;;;2.65;;
24147;SDS011;12309;51.450;-2.624;2023-09-12T07:47:33;7.57;;;3.03;;
24147;SDS011;12309;51.450;-2.624;2023-09-12T07:49:58;6.28;;;3.25;;
24147;SDS011;12309;51.450;-2.624;2023-09-12T07:52:25;9.20;;;3.10;;
24147;SDS011;12309;51.450;-2.624;2023-09-12T07:54:51;3.75;;;2.40;;
24147;SDS011;12309;51.450;-2.624;2023-09-12T07:57:22;7.82;;;2.25;;
24147;SDS011;12309;51.450;-2.624;2023-09-12T07:59:48;5.78;;;2.88;;
24147;SDS011;12309;51.450;-2.624;2023-09-12T08:02:13;6.97;;;3.00;;
24147;SDS011;12309;51.450;-2.624;2023-09-12T08:04:39;7.68;;;2.67;;
24147;SDS011;12309;51.450;-2.624;2023-09-12T08:07:05;4.05;;;2.58;;
24147;SDS011;12309;51.450;-2.624;2023-09-12T08:12:20;5.10;;;2.33;;
24147;SDS011;12309;51.450;-2.624;2023-09-12T08:14:47;4.43;;;2.50;;
24147;SDS011;12309;51.450;-2.624;2023-09-12T08:17:13;6.13;;;2.33;;
24147;SDS011;12309;51.450;-2.624;2023-09-12T08:19:39;4.55;;;2.10;;
24147;SDS011;12309;51.450;-2.624;2023-09-12T08:22:05;10.10;;;2.20;;
24147;SDS011;12309;51.450;-2.624;2023-09-12T08:24:32;4.15;;;2.20;;
24147;SDS011;12309;51.450;-2.624;2023-09-12T08:26:58;3.03;;;1.60;;
24147;SDS011;12309;51.450;-2.624;2023-09-12T08:29:24;5.68;;;1.85;;
24147;SDS011;12309;51.450;-2.624;2023-09-12T08:31:50;3.83;;;2.00;;
24147;SDS011;12309;51.450;-2.624;2023-09-12T08:34:15;6.43;;;1.90;;
24147;SDS011;12309;51.450;-2.624;2023-09-12T08:36:41;4.45;;;1.70;;
24147;SDS011;12309;51.450;-2.624;2023-09-12T08:39:11;3.47;;;1.63;;
24147;SDS011;12309;51.450;-2.624;2023-09-12T08:41:37;6.22;;;2.03;;
24147;SDS011;12309;51.450;-2.624;2023-09-12T08:44:04;2.45;;;1.55;;
24147;SDS011;12309;51.450;-2.624;2023-09-12T08:46:30;4.60;;;1.58;;
24147;SDS011;12309;51.450;-2.624;2023-09-12T08:48:56;3.67;;;1.60;;
24147;SDS011;12309;51.450;-2.624;2023-09-12T08:51:23;3.40;;;1.70;;
24147;SDS011;12309;51.450;-2.624;2023-09-12T08:53:51;3.55;;;1.85;;
24147;SDS011;12309;51.450;-2.624;2023-09-12T08:56:17;3.50;;;1.42;;
24147;SDS011;12309;51.450;-2.624;2023-09-12T08:58:44;5.50;;;1.77;;
24147;SDS011;12309;51.450;-2.624;2023-09-12T09:01:10;4.38;;;1.58;;
24147;SDS011;12309;51.450;-2.624;2023-09-12T09:03:39;5.43;;;1.45;;
24147;SDS011;12309;51.450;-2.624;2023-09-12T09:06:06;3.17;;;1.83;;
24147;SDS011;12309;51.450;-2.624;2023-09-12T09:08:34;4.93;;;1.65;;
24147;SDS011;12309;51.450;-2.624;2023-09-12T09:11:00;3.08;;;1.17;;
24147;SDS011;12309;51.450;-2.624;2023-09-12T09:13:31;3.17;;;1.70;;
24147;SDS011;12309;51.450;-2.624;2023-09-12T09:16:13;3.88;;;1.52;;
24147;SDS011;12309;51.450;-2.624;2023-09-12T09:18:50;2.63;;;1.50;;
24147;SDS011;12309;51.450;-2.624;2023-09-12T09:21:20;5.20;;;1.60;;
24147;SDS011;12309;51.450;-2.624;2023-09-12T09:23:50;6.97;;;1.63;;
24147;SDS011;12309;51.450;-2.624;2023-09-12T09:26:17;2.97;;;1.50;;
24147;SDS011;12309;51.450;-2.624;2023-09-12T09:28:43;2.15;;;1.10;;
24147;SDS011;12309;51.450;-2.624;2023-09-12T09:31:12;1.02;;;0.60;;
24147;SDS011;12309;51.450;-2.624;2023-09-12T09:33:39;1.73;;;0.50;;
24147;SDS011;12309;51.450;-2.624;2023-09-12T09:36:06;0.43;;;0.30;;
24147;SDS011;12309;51.450;-2.624;2023-09-12T09:38:35;1.08;;;0.38;;
24147;SDS011;12309;51.450;-2.624;2023-09-12T09:41:05;1.67;;;0.30;;
24147;SDS011;12309;51.450;-2.624;2023-09-12T09:43:31;2.10;;;0.28;;
24147;SDS011;12309;51.450;-2.624;2023-09-12T09:45:57;0.80;;;0.40;;
24147;SDS011;12309;51.450;-2.624;2023-09-12T09:48:24;0.20;;;0.10;;
24147;SDS011;12309;51.450;-2.624;2023-09-12T09:50:52;0.90;;;0.17;;
24147;SDS011;12309;51.450;-2.624;2023-09-12T09:53:23;0.45;;;0.20;;
24147;SDS011;12309;51.450;-2.624;2023-09-12T09:55:51;0.75;;;0.08;;
24147;SDS011;12309;51.450;-2.624;2023-09-12T09:58:17;0.95;;;0.20;;
24147;SDS011;12309;51.450;-2.624;2023-09-12T10:00:42;0.52;;;0.20;;
24147;SDS011;12309;51.450;-2.624;2023-09-12T10:03:08;0.20;;;0.15;;
24147;SDS011;12309;51.450;-2.624;2023-09-12T10:05:37;0.63;;;0.20;;
24147;SDS011;12309;51.450;-2.624;2023-09-12T10:08:04;0.45;;;0.30;;
24147;SDS011;12309;51.450;-2.624;2023-09-12T10:10:32;1.05;;;0.28;;
24147;SDS011;12309;51.450;-2.624;2023-09-12T10:12:59;0.95;;;0.30;;
24147;SDS011;12309;51.450;-2.624;2023-09-12T10:15:29;1.73;;;0.50;;
24147;SDS011;12309;51.450;-2.624;2023-09-12T10:17:59;2.20;;;0.40;;
24147;SDS011;12309;51.450;-2.624;2023-09-12T10:20:44;1.17;;;0.50;;
24147;SDS011;12309;51.450;-2.624;2023-09-12T10:23:17;0.68;;;0.30;;
24147;SDS011;12309;51.450;-2.624;2023-09-12T10:25:48;1.15;;;0.30;;
24147;SDS011;12309;51.450;-2.624;2023-09-12T10:28:15;1.30;;;0.30;;
24147;SDS011;12309;51.450;-2.624;2023-09-12T10:30:42;0.95;;;0.50;;
24147;SDS011;12309;51.450;-2.624;2023-09-12T10:33:08;1.08;;;0.50;;
24147;SDS011;12309;51.450;-2.624;2023-09-12T10:35:35;1.67;;;0.57;;
24147;SDS011;12309;51.450;-2.624;2023-09-12T10:38:03;1.13;;;0.40;;
24147;SDS011;12309;51.450;-2.624;2023-09-12T10:40:33;1.75;;;0.52;;
24147;SDS011;12309;51.450;-2.624;2023-09-12T10:43:01;1.92;;;0.52;;
24147;SDS011;12309;51.450;-2.624;2023-09-12T10:45:31;1.58;;;0.40;;
24147;SDS011;12309;51.450;-2.624;2023-09-12T10:47:58;2.08;;;0.50;;
24147;SDS011;12309;51.450;-2.624;2023-09-12T10:50:23;2.45;;;0.57;;
24147;SDS011;12309;51.450;-2.624;2023-09-12T10:52:49;1.90;;;0.50;;
24147;SDS011;12309;51.450;-2.624;2023-09-12T10:55:15;1.30;;;0.57;;
24147;SDS011;12309;51.450;-2.624;2023-09-12T10:58:02;1.90;;;0.52;;
24147;SDS011;12309;51.450;-2.624;2023-09-12T11:00:29;4.30;;;0.75;;
24147;SDS011;12309;51.450;-2.624;2023-09-12T11:02:57;0.98;;;0.50;;
24147;SDS011;12309;51.450;-2.624;2023-09-12T11:08:00;1.65;;;0.50;;
24147;SDS011;12309;51.450;-2.624;2023-09-12T11:10:29;2.50;;;0.70;;
24147;SDS011;12309;51.450;-2.624;2023-09-12T11:12:56;2.40;;;0.80;;
24147;SDS011;12309;51.450;-2.624;2023-09-12T11:15:23;1.67;;;0.70;;
24147;SDS011;12309;51.450;-2.624;2023-09-12T11:18:05;1.63;;;0.55;;
24147;SDS011;12309;51.450;-2.624;2023-09-12T11:23:28;2.42;;;0.60;;
24147;SDS011;12309;51.450;-2.624;2023-09-12T11:26:06;0.80;;;0.50;;
24147;SDS011;12309;51.450;-2.624;2023-09-12T11:28:33;1.30;;;0.70;;
24147;SDS011;12309;51.450;-2.624;2023-09-12T11:30:59;2.90;;;1.00;;
24147;SDS011;12309;51.450;-2.624;2023-09-12T11:33:25;2.67;;;0.80;;
24147;SDS011;12309;51.450;-2.624;2023-09-12T11:35:55;2.65;;;0.60;;
24147;SDS011;12309;51.450;-2.624;2023-09-12T11:38:29;1.98;;;0.60;;
24147;SDS011;12309;51.450;-2.624;2023-09-12T11:40:56;1.00;;;0.50;;
24147;SDS011;12309;51.450;-2.624;2023-09-12T11:43:23;1.77;;;0.40;;
24147;SDS011;12309;51.450;-2.624;2023-09-12T11:45:50;1.08;;;0.43;;
24147;SDS011;12309;51.450;-2.624;2023-09-12T11:48:17;1.33;;;0.70;;
24147;SDS011;12309;51.450;-2.624;2023-09-12T11:50:48;2.55;;;0.63;;
24147;SDS011;12309;51.450;-2.624;2023-09-12T11:53:18;3.03;;;0.45;;
24147;SDS011;12309;51.450;-2.624;2023-09-12T11:55:50;1.58;;;0.60;;
24147;SDS011;12309;51.450;-2.624;2023-09-12T11:58:23;4.28;;;0.60;;
24147;SDS011;12309;51.450;-2.624;2023-09-12T12:00:51;4.35;;;0.55;;
24147;SDS011;12309;51.450;-2.624;2023-09-12T12:03:19;3.75;;;0.70;;
24147;SDS011;12309;51.450;-2.624;2023-09-12T12:05:46;0.82;;;0.45;;
24147;SDS011;12309;51.450;-2.624;2023-09-12T12:08:13;3.92;;;0.60;;
24147;SDS011;12309;51.450;-2.624;2023-09-12T12:10:40;2.88;;;0.80;;
24147;SDS011;12309;51.450;-2.624;2023-09-12T12:13:10;4.03;;;1.00;;
24147;SDS011;12309;51.450;-2.624;2023-09-12T12:15:36;3.42;;;0.60;;
24147;SDS011;12309;51.450;-2.624;2023-09-12T12:18:02;2.92;;;0.80;;
24147;SDS011;12309;51.450;-2.624;2023-09-12T12:20:28;1.73;;;0.57;;
24147;SDS011;12309;51.450;-2.624;2023-09-12T12:22:55;4.10;;;0.40;;
24147;SDS011;12309;51.450;-2.624;2023-09-12T12:25:21;2.70;;;0.63;;
24147;SDS011;12309;51.450;-2.624;2023-09-12T12:27:47;4.35;;;0.85;;
24147;SDS011;12309;51.450;-2.624;2023-09-12T12:30:13;4.75;;;1.00;;
24147;SDS011;12309;51.450;-2.624;2023-09-12T12:32:43;2.47;;;0.70;;
24147;SDS011;12309;51.450;-2.624;2023-09-12T12:35:20;1.98;;;0.60;;
24147;SDS011;12309;51.450;-2.624;2023-09-12T12:37:50;5.30;;;0.73;;
24147;SDS011;12309;51.450;-2.624;2023-09-12T12:40:18;1.70;;;0.50;;
24147;SDS011;12309;51.450;-2.624;2023-09-12T12:42:44;1.98;;;0.40;;
24147;SDS011;12309;51.450;-2.624;2023-09-12T12:45:20;3.92;;;0.52;;
24147;SDS011;12309;51.450;-2.624;2023-09-12T12:47:51;1.58;;;0.57;;
24147;SDS011;12309;51.450;-2.624;2023-09-12T12:50:22;3.65;;;0.55;;
24147;SDS011;12309;51.450;-2.624;2023-09-12T12:52:48;1.95;;;0.65;;
24147;SDS011;12309;51.450;-2.624;2023-09-12T12:55:14;1.23;;;0.60;;
24147;SDS011;12309;51.450;-2.624;2023-09-12T12:57:42;2.85;;;0.70;;
24147;SDS011;12309;51.450;-2.624;2023-09-12T13:00:12;1.98;;;0.65;;
24147;SDS011;12309;51.450;-2.624;2023-09-12T13:02:40;1.42;;;0.40;;
24147;SDS011;12309;51.450;-2.624;2023-09-12T13:05:17;4.75;;;0.98;;
24147;SDS011;12309;51.450;-2.624;2023-09-12T13:07:54;3.13;;;0.70;;
24147;SDS011;12309;51.450;-2.624;2023-09-12T13:10:20;1.65;;;0.70;;
24147;SDS011;12309;51.450;-2.624;2023-09-12T13:12:47;1.77;;;0.90;;
24147;SDS011;12309;51.450;-2.624;2023-09-12T13:15:14;5.85;;;0.80;;
24147;SDS011;12309;51.450;-2.624;2023-09-12T13:17:40;3.38;;;0.70;;
24147;SDS011;12309;51.450;-2.624;2023-09-12T13:20:06;2.35;;;0.90;;
24147;SDS011;12309;51.450;-2.624;2023-09-12T13:22:33;4.18;;;0.73;;
24147;SDS011;12309;51.450;-2.624;2023-09-12T13:24:59;4.22;;;0.93;;
24147;SDS011;12309;51.450;-2.624;2023-09-12T13:27:25;2.10;;;0.88;;
24147;SDS011;12309;51.450;-2.624;2023-09-12T13:29:50;3.25;;;1.30;;
24147;SDS011;12309;51.450;-2.624;2023-09-12T13:32:16;6.45;;;0.93;;
24147;SDS011;12309;51.450;-2.624;2023-09-12T13:34:43;3.50;;;0.70;;
24147;SDS011;12309;51.450;-2.624;2023-09-12T13:37:09;7.18;;;0.95;;
24147;SDS011;12309;51.450;-2.624;2023-09-12T13:39:35;4.07;;;1.27;;
24147;SDS011;12309;51.450;-2.624;2023-09-12T13:42:01;5.32;;;1.20;;
24147;SDS011;12309;51.450;-2.624;2023-09-12T13:44:28;4.53;;;1.73;;
24147;SDS011;12309;51.450;-2.624;2023-09-12T13:46:54;4.85;;;1.20;;
24147;SDS011;12309;51.450;-2.624;2023-09-12T13:49:19;10.30;;;1.45;;
24147;SDS011;12309;51.450;-2.624;2023-09-12T13:51:45;9.20;;;0.90;;
24147;SDS011;12309;51.450;-2.624;2023-09-12T13:54:10;3.83;;;1.10;;
24147;SDS011;12309;51.450;-2.624;2023-09-12T13:56:40;7.30;;;1.40;;
24147;SDS011;12309;51.450;-2.624;2023-09-12T13:59:06;6.28;;;1.13;;
24147;SDS011;12309;51.450;-2.624;2023-09-12T14:01:31;3.10;;;0.90;;
24147;SDS011;12309;51.450;-2.624;2023-09-12T14:03:57;5.07;;;0.80;;
24147;SDS011;12309;51.450;-2.624;2023-09-12T14:06:23;3.17;;;0.82;;
24147;SDS011;12309;51.450;-2.624;2023-09-12T14:08:49;2.90;;;0.80;;
24147;SDS011;12309;51.450;-2.624;2023-09-12T14:11:14;5.60;;;0.82;;
24147;SDS011;12309;51.450;-2.624;2023-09-12T14:13:40;6.70;;;1.10;;
24147;SDS011;12309;51.450;-2.624;2023-09-12T14:16:06;3.28;;;0.90;;
24147;SDS011;12309;51.450;-2.624;2023-09-12T14:18:31;3.75;;;0.80;;
24147;SDS011;12309;51.450;-2.624;2023-09-12T14:20:57;5.05;;;0.93;;
24147;SDS011;12309;51.450;-2.624;2023-09-12T14:23:23;3.30;;;0.75;;
24147;SDS011;12309;51.450;-2.624;2023-09-12T14:25:48;3.00;;;0.77;;
24147;SDS011;12309;51.450;-2.624;2023-09-12T14:28:14;3.97;;;1.10;;
24147;SDS011;12309;51.450;-2.624;2023-09-12T14:30:40;4.43;;;1.13;;
24147;SDS011;12309;51.450;-2.624;2023-09-12T14:33:09;3.78;;;0.80;;
24147;SDS011;12309;51.450;-2.624;2023-09-12T14:35:35;6.72;;;1.00;;
24147;SDS011;12309;51.450;-2.624;2023-09-12T14:38:01;4.55;;;0.95;;
24147;SDS011;12309;51.450;-2.624;2023-09-12T14:40:27;2.03;;;0.88;;
24147;SDS011;12309;51.450;-2.624;2023-09-12T14:42:53;4.13;;;1.10;;
24147;SDS011;12309;51.450;-2.624;2023-09-12T14:45:19;2.05;;;0.70;;